createdAt,value
2019-05-14T00:02:28.216Z,8.60
2019-05-14T00:04:58.761Z,9.67
2019-05-14T00:07:27.136Z,11.13
2019-05-14T00:09:55.211Z,11.17
2019-05-14T00:12:26.168Z,9.17
2019-05-14T00:14:54.172Z,9.83
2019-05-14T00:17:23.957Z,11.93
2019-05-14T00:20:05.827Z,12.73
2019-05-14T00:22:22.058Z,14.13
2019-05-14T00:24:52.008Z,17.57
2019-05-14T00:27:21.805Z,15.23
2019-05-14T00:29:51.570Z,27.10
2019-05-14T00:32:21.480Z,22.33
2019-05-14T00:34:51.568Z,21.93
2019-05-14T00:37:21.740Z,24.73
2019-05-14T00:39:51.851Z,26.37
2019-05-14T00:42:21.575Z,26.77
2019-05-14T00:44:56.927Z,29.20
2019-05-14T00:47:21.525Z,30.47
2019-05-14T00:49:51.511Z,32.37
2019-05-14T00:52:23.530Z,30.43
2019-05-14T00:54:56.504Z,32.03
2019-05-14T00:57:24.468Z,34.37
2019-05-14T00:59:52.629Z,36.07
2019-05-14T01:02:21.777Z,35.73
2019-05-14T01:04:51.672Z,37.37
2019-05-14T01:07:23.396Z,34.33
2019-05-14T01:09:52.372Z,36.07
2019-05-14T01:12:25.913Z,36.73
2019-05-14T01:15:07.049Z,31.23
2019-05-14T01:17:23.353Z,30.70
2019-05-14T01:19:51.531Z,28.20
2019-05-14T01:22:21.265Z,26.93
2019-05-14T01:24:54.316Z,26.47
2019-05-14T01:27:23.320Z,25.47
2019-05-14T01:29:51.539Z,28.23
2019-05-14T01:32:21.934Z,26.83
2019-05-14T01:34:49.430Z,29.53
2019-05-14T01:37:17.195Z,30.23
2019-05-14T01:39:45.152Z,31.77
2019-05-14T01:42:13.275Z,29.97
2019-05-14T01:44:41.549Z,30.30
2019-05-14T01:47:09.485Z,24.33
2019-05-14T01:49:37.850Z,23.43
2019-05-14T01:52:05.571Z,22.70
2019-05-14T01:54:35.406Z,18.80
2019-05-14T01:57:03.571Z,21.47
2019-05-14T01:59:32.363Z,19.63
2019-05-14T02:02:02.382Z,18.03
2019-05-14T02:04:33.217Z,18.33
2019-05-14T02:07:02.238Z,17.97
2019-05-14T02:09:31.206Z,19.20
2019-05-14T02:12:01.999Z,18.80
2019-05-14T02:14:31.346Z,18.23
2019-05-14T02:17:01.930Z,16.93
2019-05-14T02:19:31.646Z,17.83
2019-05-14T02:22:02.172Z,18.53
2019-05-14T02:24:32.204Z,18.10
2019-05-14T02:27:01.888Z,18.47
2019-05-14T02:29:32.067Z,18.97
2019-05-14T02:31:59.762Z,17.90
2019-05-14T02:34:29.916Z,17.97
2019-05-14T02:37:00.414Z,20.23
2019-05-14T02:39:31.130Z,17.97
2019-05-14T02:42:00.675Z,19.00
2019-05-14T02:44:29.822Z,17.90
2019-05-14T02:47:03.618Z,17.13
2019-05-14T02:49:32.213Z,18.60
2019-05-14T02:52:00.884Z,18.23
2019-05-14T02:54:29.816Z,14.87
2019-05-14T02:57:05.206Z,17.37
2019-05-14T02:59:32.988Z,16.40
2019-05-14T03:02:01.491Z,17.93
2019-05-14T03:04:30.321Z,16.43
2019-05-14T03:07:00.060Z,16.97
2019-05-14T03:09:39.948Z,15.73
2019-05-14T03:12:05.041Z,14.27
2019-05-14T03:14:35.650Z,16.83
2019-05-14T03:17:10.502Z,15.37
2019-05-14T03:19:40.846Z,15.93
2019-05-14T03:22:10.273Z,13.10
2019-05-14T03:24:40.119Z,14.80
2019-05-14T03:27:11.386Z,14.10
2019-05-14T03:29:42.317Z,13.93
2019-05-14T03:32:14.002Z,16.53
2019-05-14T03:34:43.811Z,14.30
2019-05-14T03:37:15.484Z,13.83
2019-05-14T03:39:49.399Z,13.80
2019-05-14T03:42:20.601Z,13.27
2019-05-14T03:44:54.498Z,14.03
2019-05-14T03:47:29.862Z,15.73
2019-05-14T03:49:58.820Z,13.77
2019-05-14T03:52:31.545Z,14.03
2019-05-14T03:55:04.321Z,15.60
2019-05-14T03:57:29.783Z,16.33
2019-05-14T03:59:59.716Z,16.30
2019-05-14T04:02:33.684Z,16.50
2019-05-14T04:05:04.109Z,13.83
2019-05-14T04:07:39.023Z,15.60
2019-05-14T04:10:11.544Z,14.47
2019-05-14T04:12:49.186Z,15.50
2019-05-14T04:15:23.019Z,16.37
2019-05-14T04:17:52.700Z,17.07
2019-05-14T04:20:24.809Z,17.73
2019-05-14T04:22:56.388Z,18.50
2019-05-14T04:25:29.629Z,19.67
2019-05-14T04:28:03.355Z,21.40
2019-05-14T04:30:35.362Z,24.40
2019-05-14T04:33:03.604Z,26.97
2019-05-14T04:35:34.710Z,28.23
2019-05-14T04:38:02.820Z,25.27
2019-05-14T04:40:30.882Z,31.00
2019-05-14T04:42:59.288Z,33.40
2019-05-14T04:45:29.707Z,25.33
2019-05-14T04:48:00.096Z,28.73
2019-05-14T04:50:29.448Z,30.27
2019-05-14T04:53:00.952Z,32.60
2019-05-14T04:55:29.816Z,27.90
2019-05-14T04:57:59.115Z,31.00
2019-05-14T05:00:30.463Z,27.30
2019-05-14T05:03:00.003Z,27.67
2019-05-14T05:05:29.885Z,27.23
2019-05-14T05:07:59.673Z,25.40
2019-05-14T05:10:29.760Z,24.30
2019-05-14T05:12:58.590Z,26.70
2019-05-14T05:15:28.876Z,24.40
2019-05-14T05:17:58.721Z,25.83
2019-05-14T05:20:25.721Z,23.37
2019-05-14T05:22:54.221Z,23.80
2019-05-14T05:25:21.996Z,22.37
2019-05-14T05:27:49.887Z,21.00
2019-05-14T05:30:19.007Z,19.17
2019-05-14T05:32:49.248Z,18.30
2019-05-14T05:35:18.634Z,18.63
2019-05-14T05:37:48.865Z,16.13
2019-05-14T05:40:16.190Z,18.40
2019-05-14T05:42:51.639Z,17.20
2019-05-14T05:45:19.575Z,16.73
2019-05-14T05:47:57.111Z,17.80
2019-05-14T05:50:19.352Z,22.33
2019-05-14T05:52:49.775Z,17.47
2019-05-14T05:55:19.137Z,16.17
2019-05-14T05:57:49.222Z,15.33
2019-05-14T06:00:29.859Z,14.23
2019-05-14T06:02:59.069Z,14.03
2019-05-14T06:05:29.096Z,12.80
2019-05-14T06:07:58.875Z,14.47
2019-05-14T06:10:26.125Z,12.20
2019-05-14T06:12:53.786Z,12.33
2019-05-14T06:15:21.608Z,11.27
2019-05-14T06:17:49.424Z,10.73
2019-05-14T06:20:18.922Z,10.33
2019-05-14T06:22:48.817Z,10.43
2019-05-14T06:25:20.489Z,11.13
2019-05-14T06:27:45.879Z,12.43
2019-05-14T06:30:15.373Z,13.28
2019-05-14T06:32:42.915Z,12.67
2019-05-14T06:35:10.682Z,11.40
2019-05-14T06:37:38.603Z,9.37
2019-05-14T06:40:08.774Z,12.30
2019-05-14T06:42:38.907Z,10.27
2019-05-14T06:45:08.557Z,12.33
2019-05-14T06:47:38.052Z,10.60
2019-05-14T06:50:05.445Z,9.60
2019-05-14T06:52:35.529Z,9.83
2019-05-14T06:55:03.354Z,11.40
2019-05-14T06:57:30.918Z,9.80
2019-05-14T06:59:59.001Z,10.03
2019-05-14T07:02:28.542Z,10.00
2019-05-14T07:04:59.004Z,9.67
2019-05-14T07:07:29.707Z,10.50
2019-05-14T07:09:58.231Z,9.27
2019-05-14T07:12:25.673Z,9.03
2019-05-14T07:14:53.412Z,9.33
2019-05-14T07:17:21.052Z,8.13
2019-05-14T07:19:49.938Z,8.50
2019-05-14T07:22:19.570Z,7.80
2019-05-14T07:24:49.388Z,8.17
2019-05-14T07:27:19.099Z,8.07
2019-05-14T07:29:46.002Z,8.13
2019-05-14T07:32:13.692Z,8.13
2019-05-14T07:34:41.287Z,9.07
2019-05-14T07:37:09.255Z,9.23
2019-05-14T07:39:38.571Z,8.80
2019-05-14T07:42:09.347Z,9.13
2019-05-14T07:44:38.868Z,9.13
2019-05-14T07:47:08.077Z,9.40
2019-05-14T07:49:35.345Z,8.27
2019-05-14T07:52:02.888Z,7.73
2019-05-14T07:54:30.461Z,6.77
2019-05-14T07:56:59.016Z,7.03
2019-05-14T07:59:28.774Z,6.03
2019-05-14T08:01:58.644Z,6.60
2019-05-14T08:04:29.007Z,6.20
2019-05-14T08:06:58.215Z,5.40
2019-05-14T08:09:28.150Z,6.17
2019-05-14T08:11:55.490Z,6.10
2019-05-14T08:14:23.205Z,6.00
2019-05-14T08:16:50.919Z,6.40
2019-05-14T08:19:26.287Z,6.00
2019-05-14T08:21:48.292Z,5.43
2019-05-14T08:24:20.166Z,6.07
2019-05-14T08:26:48.548Z,5.53
2019-05-14T08:29:17.979Z,5.40
2019-05-14T08:31:45.134Z,5.17
2019-05-14T08:34:12.705Z,4.93
2019-05-14T08:36:40.284Z,4.80
2019-05-14T08:39:08.805Z,5.50
2019-05-14T08:41:38.365Z,5.10
2019-05-14T08:44:08.336Z,4.80
2019-05-14T08:46:35.422Z,4.20
2019-05-14T08:49:03.017Z,4.20
2019-05-14T08:51:30.680Z,3.60
2019-05-14T08:53:59.235Z,4.67
2019-05-14T08:56:28.185Z,3.53
2019-05-14T08:58:55.919Z,3.37
2019-05-14T09:01:23.655Z,2.97
2019-05-14T09:03:51.350Z,3.00
2019-05-14T09:06:19.037Z,3.40
2019-05-14T09:08:49.258Z,3.70
2019-05-14T09:11:23.000Z,3.47
2019-05-14T09:13:45.619Z,4.23
2019-05-14T09:16:13.298Z,4.07
2019-05-14T09:18:41.525Z,4.30
2019-05-14T09:21:09.319Z,4.53
2019-05-14T09:23:39.165Z,4.83
2019-05-14T09:26:09.319Z,4.27
2019-05-14T09:28:36.225Z,5.23
2019-05-14T09:31:03.889Z,6.07
2019-05-14T09:33:31.601Z,4.07
2019-05-14T09:36:13.686Z,7.63
2019-05-14T09:38:29.434Z,4.10
2019-05-14T09:41:08.159Z,4.70
2019-05-14T09:43:28.611Z,4.00
2019-05-14T09:45:56.015Z,3.60
2019-05-14T09:48:23.661Z,4.17
2019-05-14T09:50:51.345Z,3.30
2019-05-14T09:53:19.102Z,3.77
2019-05-14T09:55:48.937Z,3.80
2019-05-14T09:58:19.589Z,3.73
2019-05-14T10:00:48.333Z,3.40
2019-05-14T10:03:18.994Z,3.63
2019-05-14T10:05:45.742Z,3.60
2019-05-14T10:08:13.309Z,2.43
2019-05-14T10:10:41.063Z,2.47
2019-05-14T10:13:09.787Z,2.57
2019-05-14T10:15:39.054Z,2.63
2019-05-14T10:18:11.131Z,3.00
2019-05-14T10:20:42.463Z,3.90
2019-05-14T10:23:06.402Z,3.20
2019-05-14T10:25:33.955Z,3.73
2019-05-14T10:28:01.678Z,4.00
2019-05-14T10:30:29.763Z,3.93
2019-05-14T10:33:07.127Z,3.70
2019-05-14T10:35:28.569Z,3.70
2019-05-14T10:37:59.663Z,4.00
2019-05-14T10:40:26.039Z,8.17
2019-05-14T10:42:53.803Z,22.37
2019-05-14T10:45:25.490Z,30.23
2019-05-14T10:47:53.410Z,13.00
2019-05-14T10:50:22.373Z,11.13
2019-05-14T10:52:50.161Z,13.30
2019-05-14T10:55:18.544Z,21.37
2019-05-14T10:57:54.411Z,9.37
2019-05-14T11:00:21.539Z,24.73
2019-05-14T11:02:49.323Z,11.67
2019-05-14T11:05:18.735Z,6.07
2019-05-14T11:07:48.198Z,3.43
2019-05-14T11:10:19.169Z,3.63
2019-05-14T11:12:45.883Z,3.10
2019-05-14T11:15:13.791Z,4.63
2019-05-14T11:17:41.428Z,4.93
2019-05-14T11:20:09.313Z,4.10
2019-05-14T11:22:37.120Z,4.93
2019-05-14T11:25:05.230Z,4.97
2019-05-14T11:27:32.898Z,4.40
2019-05-14T11:30:00.433Z,5.03
2019-05-14T11:32:29.153Z,3.90
2019-05-14T11:34:59.155Z,4.90
2019-05-14T11:37:28.172Z,3.90
2019-05-14T11:39:57.969Z,3.93
2019-05-14T11:42:25.641Z,6.27
2019-05-14T11:44:53.269Z,3.67
2019-05-14T11:47:20.888Z,3.70
2019-05-14T11:49:49.255Z,4.10
2019-05-14T11:52:18.041Z,3.30
2019-05-14T11:54:45.764Z,4.00
2019-05-14T11:57:13.462Z,3.47
2019-05-14T11:59:41.081Z,3.30
2019-05-14T12:02:09.604Z,3.63
2019-05-14T12:04:39.173Z,3.50
2019-05-14T12:07:09.377Z,4.00
2019-05-14T12:09:38.907Z,4.63
2019-05-14T12:12:05.942Z,4.23
2019-05-14T12:14:33.878Z,3.80
2019-05-14T12:17:01.410Z,3.90
2019-05-14T12:19:29.115Z,3.40
2019-05-14T12:22:06.593Z,4.43
2019-05-14T12:24:26.386Z,3.30
2019-05-14T12:26:54.054Z,4.00
2019-05-14T12:29:21.727Z,3.90
2019-05-14T12:31:50.599Z,5.17
2019-05-14T12:34:18.759Z,4.70
2019-05-14T12:36:49.075Z,3.47
2019-05-14T12:39:18.593Z,3.70
2019-05-14T12:41:45.367Z,4.23
2019-05-14T12:44:13.034Z,3.83
2019-05-14T12:46:40.714Z,4.83
2019-05-14T12:49:11.698Z,3.90
2019-05-14T12:51:41.630Z,3.83
2019-05-14T12:54:09.319Z,4.20
2019-05-14T12:56:39.048Z,3.80
2019-05-14T12:59:06.109Z,3.80
2019-05-14T13:01:33.767Z,4.00
2019-05-14T13:04:01.386Z,4.17
2019-05-14T13:06:29.484Z,4.10
2019-05-14T13:08:58.652Z,4.00
2019-05-14T13:11:26.384Z,3.73
2019-05-14T13:13:53.993Z,3.90
2019-05-14T13:16:21.604Z,4.47
2019-05-14T13:18:50.141Z,4.67
2019-05-14T13:21:19.099Z,4.27
2019-05-14T13:23:48.672Z,5.10
2019-05-14T13:26:18.812Z,4.37
2019-05-14T13:28:50.281Z,4.50
2019-05-14T13:31:15.369Z,4.47
2019-05-14T13:33:42.968Z,4.63
2019-05-14T13:36:10.713Z,4.87
2019-05-14T13:38:39.672Z,4.73
2019-05-14T13:41:08.675Z,5.17
2019-05-14T13:43:39.121Z,3.70
2019-05-14T13:46:06.248Z,4.00
2019-05-14T13:48:33.868Z,3.90
2019-05-14T13:51:01.771Z,4.00
2019-05-14T13:53:29.734Z,3.97
2019-05-14T13:55:58.054Z,4.80
2019-05-14T13:58:28.399Z,4.97
2019-05-14T14:00:58.841Z,4.93
2019-05-14T14:03:25.326Z,4.23
2019-05-14T14:05:53.215Z,5.07
2019-05-14T14:08:21.032Z,4.57
2019-05-14T14:10:53.231Z,4.80
2019-05-14T14:13:19.820Z,4.67
2019-05-14T14:15:49.841Z,5.00
2019-05-14T14:18:20.946Z,5.50
2019-05-14T14:20:48.948Z,5.73
2019-05-14T14:23:23.126Z,5.27
2019-05-14T14:25:53.733Z,4.60
2019-05-14T14:28:16.469Z,4.10
2019-05-14T14:30:44.262Z,5.00
2019-05-14T14:33:12.461Z,5.10
2019-05-14T14:35:40.216Z,4.50
2019-05-14T14:38:08.695Z,4.00
2019-05-14T14:40:39.374Z,4.40
2019-05-14T14:43:06.851Z,4.83
2019-05-14T14:45:34.685Z,4.97
2019-05-14T14:48:02.464Z,5.20
2019-05-14T14:50:30.305Z,5.70
2019-05-14T14:52:59.886Z,5.67
2019-05-14T14:55:30.683Z,5.90
2019-05-14T14:57:57.085Z,6.47
2019-05-14T15:00:24.833Z,7.77
2019-05-14T15:02:52.720Z,6.90
2019-05-14T15:05:20.475Z,7.53
2019-05-14T15:07:49.967Z,7.77
2019-05-14T15:10:19.404Z,7.73
2019-05-14T15:12:49.633Z,7.60
2019-05-14T15:15:19.498Z,9.00
2019-05-14T15:17:48.335Z,8.50
2019-05-14T15:20:19.274Z,9.63
2019-05-14T15:22:49.049Z,8.77
2019-05-14T15:25:18.501Z,8.83
2019-05-14T15:27:49.096Z,8.37
2019-05-14T15:30:20.417Z,10.63
2019-05-14T15:32:51.231Z,9.90
2019-05-14T15:35:19.056Z,9.97
2019-05-14T15:37:49.063Z,9.53
2019-05-14T15:40:23.426Z,9.33
2019-05-14T15:42:54.865Z,9.50
2019-05-14T15:45:23.069Z,9.70
2019-05-14T15:47:51.017Z,10.03
2019-05-14T15:50:19.919Z,9.23
2019-05-14T15:52:48.840Z,9.97
2019-05-14T15:55:23.045Z,9.80
2019-05-14T15:57:51.265Z,10.03
2019-05-14T16:00:19.733Z,9.63
2019-05-14T16:03:00.052Z,9.77
2019-05-14T16:05:28.860Z,9.50
2019-05-14T16:07:59.405Z,10.30
2019-05-14T16:10:35.865Z,11.83
2019-05-14T16:13:03.723Z,11.00
2019-05-14T16:15:32.172Z,11.73
2019-05-14T16:18:09.355Z,11.50
2019-05-14T16:20:30.237Z,10.67
2019-05-14T16:22:58.997Z,14.07
2019-05-14T16:25:28.596Z,11.67
2019-05-14T16:30:58.710Z,10.77
2019-05-14T16:33:29.154Z,12.23
2019-05-14T16:35:58.007Z,11.93
2019-05-14T16:38:28.319Z,12.23
2019-05-14T16:41:00.863Z,11.93
2019-05-14T16:43:32.437Z,15.90
2019-05-14T16:45:59.929Z,13.27
2019-05-14T16:48:28.960Z,13.20
2019-05-14T16:50:58.431Z,12.23
2019-05-14T16:53:28.778Z,13.93
2019-05-14T16:55:57.666Z,15.30
2019-05-14T16:58:25.723Z,15.17
2019-05-14T17:06:58.866Z,12.40
2019-05-14T17:09:28.148Z,14.23
2019-05-14T17:15:10.011Z,14.70
2019-05-14T17:20:36.163Z,16.73
2019-05-14T17:23:03.887Z,13.20
2019-05-14T17:25:36.120Z,17.87
2019-05-14T17:28:24.902Z,15.63
2019-05-14T17:31:08.521Z,30.27
2019-05-14T17:33:58.437Z,25.93
2019-05-14T17:36:28.322Z,22.63
2019-05-14T17:38:58.693Z,27.77
2019-05-14T17:41:27.150Z,24.07
2019-05-14T17:43:55.689Z,20.37
2019-05-14T17:46:48.711Z,20.87
2019-05-14T17:49:18.962Z,19.80
2019-05-14T17:51:49.410Z,26.13
2019-05-14T17:55:11.527Z,26.40
2019-05-14T17:57:45.919Z,25.37
2019-05-14T18:03:08.584Z,20.27
2019-05-14T18:05:58.152Z,28.17
2019-05-14T18:08:29.736Z,32.70
2019-05-14T18:10:59.109Z,30.63
2019-05-14T18:13:27.207Z,32.73
2019-05-14T18:15:58.957Z,24.23
2019-05-14T18:18:33.048Z,30.63
2019-05-14T18:21:34.667Z,19.67
2019-05-14T18:24:04.101Z,17.50
2019-05-14T18:26:38.561Z,21.80
2019-05-14T18:29:20.256Z,19.60
2019-05-14T18:31:53.848Z,17.60
2019-05-14T18:34:34.047Z,13.57
2019-05-14T18:37:02.276Z,17.87
2019-05-14T18:39:31.234Z,16.83
2019-05-14T18:42:00.491Z,18.90
2019-05-14T18:44:30.340Z,14.97
2019-05-14T18:46:59.352Z,18.53
2019-05-14T18:49:30.957Z,16.63
2019-05-14T18:51:59.310Z,20.57
2019-05-14T18:54:29.370Z,17.90
2019-05-14T18:56:59.475Z,14.67
2019-05-14T18:59:30.532Z,16.20
2019-05-14T19:01:59.207Z,15.23
2019-05-14T19:04:27.955Z,19.10
2019-05-14T19:07:09.909Z,15.93
2019-05-14T19:09:38.824Z,15.83
2019-05-14T19:12:08.340Z,16.73
2019-05-14T19:14:38.984Z,19.10
2019-05-14T19:17:12.934Z,15.60
2019-05-14T19:19:41.091Z,17.33
2019-05-14T19:22:09.607Z,18.73
2019-05-14T19:24:38.236Z,19.93
2019-05-14T19:27:08.924Z,20.40
2019-05-14T19:29:36.081Z,21.90
2019-05-14T19:32:03.811Z,21.40
2019-05-14T19:34:31.751Z,18.33
2019-05-14T19:36:59.674Z,18.47
2019-05-14T19:39:28.228Z,19.13
2019-05-14T19:41:56.202Z,21.40
2019-05-14T19:44:23.986Z,19.30
2019-05-14T19:46:51.703Z,24.83
2019-05-14T19:49:19.444Z,15.83
2019-05-14T19:51:48.263Z,23.40
2019-05-14T19:54:19.350Z,22.43
2019-05-14T19:56:53.257Z,22.40
2019-05-14T19:59:17.950Z,18.97
2019-05-14T20:01:48.241Z,23.47
2019-05-14T20:04:18.117Z,23.57
2019-05-14T20:06:45.527Z,20.97
2019-05-14T20:09:13.654Z,23.67
2019-05-14T20:11:41.645Z,22.67
2019-05-14T20:14:10.524Z,20.53
2019-05-14T20:16:39.249Z,23.33
2019-05-14T20:19:08.859Z,24.60
2019-05-14T20:21:38.990Z,21.70
2019-05-14T20:24:06.804Z,24.27
2019-05-14T20:26:34.646Z,24.27
2019-05-14T20:29:02.445Z,20.50
2019-05-14T20:31:30.210Z,24.00
2019-05-14T20:33:59.186Z,20.43
2019-05-14T20:36:29.448Z,23.27
2019-05-14T20:38:58.915Z,21.90
2019-05-14T20:41:28.701Z,25.30
2019-05-14T20:43:58.591Z,24.07
2019-05-14T20:46:28.388Z,24.40
2019-05-14T20:48:58.959Z,23.87
2019-05-14T20:51:28.293Z,24.67
2019-05-14T20:53:58.054Z,26.13
2019-05-14T20:56:28.249Z,22.43
2019-05-14T20:58:55.418Z,25.20
2019-05-14T21:01:23.527Z,23.70
2019-05-14T21:03:51.218Z,28.10
2019-05-14T21:06:18.995Z,27.03
2019-05-14T21:08:48.921Z,30.27
2019-05-14T21:11:18.893Z,25.40
2019-05-14T21:13:50.054Z,28.50
2019-05-14T21:16:18.141Z,30.90
2019-05-14T21:18:48.622Z,33.60
2019-05-14T21:21:15.699Z,31.97
2019-05-14T21:23:43.510Z,29.20
2019-05-14T21:26:11.230Z,36.13
2019-05-14T21:28:39.664Z,28.93
2019-05-14T21:31:10.167Z,32.07
2019-05-14T21:33:38.885Z,32.27
2019-05-14T21:36:06.541Z,33.27
2019-05-14T21:38:34.237Z,34.07
2019-05-14T21:41:02.170Z,32.07
2019-05-14T21:43:29.972Z,33.93
2019-05-14T21:45:58.661Z,37.77
2019-05-14T21:48:28.736Z,35.10
2019-05-14T21:51:00.590Z,35.37
2019-05-14T21:53:26.233Z,38.47
2019-05-14T21:55:54.454Z,32.13
2019-05-14T21:58:22.714Z,31.87
2019-05-14T22:00:53.922Z,33.60
2019-05-14T22:03:24.989Z,35.27
2019-05-14T22:05:52.718Z,38.20
2019-05-14T22:08:27.938Z,35.33
2019-05-14T22:10:58.526Z,38.73
2019-05-14T22:13:28.414Z,31.97
2019-05-14T22:15:58.771Z,35.83
2019-05-14T22:18:28.166Z,37.73
2019-05-14T22:20:57.830Z,39.00
2019-05-14T22:23:25.745Z,38.17
2019-05-14T22:25:53.998Z,36.20
2019-05-14T22:28:22.043Z,37.47
2019-05-14T22:30:50.862Z,37.13
2019-05-14T22:33:19.092Z,36.90
2019-05-14T22:35:48.560Z,36.63
2019-05-14T22:38:20.011Z,39.33
2019-05-14T22:40:48.257Z,38.07
2019-05-14T22:43:18.173Z,38.90
2019-05-14T22:45:47.975Z,38.17
2019-05-14T22:48:15.473Z,44.47
2019-05-14T22:50:43.727Z,35.70
2019-05-14T22:53:11.483Z,40.27
2019-05-14T22:55:39.320Z,36.40
2019-05-14T22:58:08.656Z,38.80
2019-05-14T23:00:45.054Z,40.53
2019-05-14T23:03:09.693Z,44.77
2019-05-14T23:05:39.342Z,39.97
2019-05-14T23:08:08.927Z,40.27
2019-05-14T23:10:38.847Z,38.60
2019-05-14T23:13:09.364Z,42.10
2019-05-14T23:15:38.543Z,42.53
2019-05-14T23:18:12.653Z,42.53
2019-05-14T23:20:44.132Z,39.53
2019-05-14T23:23:11.909Z,39.07
2019-05-14T23:25:39.737Z,37.93
2019-05-14T23:28:08.488Z,39.50
2019-05-14T23:30:38.511Z,40.90
2019-05-14T23:33:06.296Z,41.60
2019-05-14T23:35:39.076Z,37.77
2019-05-14T23:38:08.342Z,37.27
2019-05-14T23:40:38.673Z,37.70
2019-05-14T23:43:08.929Z,38.53
2019-05-14T23:45:41.933Z,40.07
2019-05-14T23:48:09.907Z,42.00
2019-05-14T23:50:38.086Z,38.57
2019-05-14T23:53:05.696Z,40.87
2019-05-14T23:55:33.703Z,37.33
2019-05-14T23:58:01.713Z,38.93
